createdAt,value
2023-04-16T00:13:42.107Z,4.34
2023-04-16T00:18:50.468Z,4.38
2023-04-16T00:23:58.283Z,4.38
2023-04-16T00:29:07.623Z,4.45
2023-04-16T00:34:16.561Z,4.45
2023-04-16T00:39:26.327Z,4.41
2023-04-16T00:44:36.093Z,4.41
2023-04-16T00:49:45.841Z,4.48
2023-04-16T00:54:56.234Z,4.48
2023-04-16T01:00:04.712Z,4.5
2023-04-16T01:05:13.173Z,4.5
2023-04-16T01:10:22.957Z,4.49
2023-04-16T01:15:31.419Z,4.49
2023-04-16T01:20:40.521Z,4.42
2023-04-16T01:25:49.846Z,4.42
2023-04-16T01:30:58.374Z,4.37
2023-04-16T01:36:07.930Z,4.37
2023-04-16T01:41:17.635Z,4.31
2023-04-16T01:46:28.165Z,4.31
2023-04-16T01:51:36.541Z,4.3
2023-04-16T01:56:45.654Z,4.3
2023-04-16T02:01:55.457Z,4.28
2023-04-16T02:07:03.883Z,4.34
2023-04-16T02:12:14.324Z,4.34
2023-04-16T02:17:24.384Z,4.38
2023-04-16T02:22:33.826Z,4.38
2023-04-16T02:27:42.302Z,4.45
2023-04-16T02:32:52.389Z,4.45
2023-04-16T02:38:01.164Z,4.43
2023-04-16T02:43:09.636Z,4.43
2023-04-16T02:48:19.426Z,4.51
2023-04-16T02:53:27.347Z,4.51
2023-04-16T02:58:36.344Z,4.46
2023-04-16T03:03:45.806Z,4.46
2023-04-16T03:55:16.897Z,4.64
2023-04-16T04:00:27.095Z,4.51
2023-04-16T04:05:36.846Z,4.51
2023-04-16T04:10:47.287Z,4.65
2023-04-16T04:15:56.034Z,4.65
2023-04-16T04:21:06.162Z,4.65
2023-04-16T04:26:14.761Z,4.65
2023-04-16T04:31:24.146Z,4.72
2023-04-16T04:36:34.110Z,4.72
2023-04-16T04:41:44.097Z,4.79
2023-04-16T04:46:53.645Z,4.79
2023-04-16T04:52:02.121Z,4.88
2023-04-16T04:57:11.257Z,4.88
2023-04-16T05:02:21.640Z,4.81
2023-04-16T05:07:29.491Z,4.78
2023-04-16T05:12:39.242Z,4.78
2023-04-16T05:17:47.869Z,4.83
2023-04-16T05:22:56.865Z,4.83
2023-04-16T05:28:05.972Z,4.93
2023-04-16T05:33:15.735Z,4.93
2023-04-16T05:38:24.859Z,4.93
2023-04-16T05:43:33.975Z,4.93
2023-04-16T05:48:43.109Z,4.9
2023-04-16T05:53:52.845Z,4.9
2023-04-16T05:59:01.978Z,4.85
2023-04-16T06:04:13.357Z,4.85
2023-04-16T06:09:20.884Z,4.88
2023-04-16T06:14:30.603Z,4.88
2023-04-16T06:19:39.092Z,4.87
2023-04-16T06:24:49.505Z,4.87
2023-04-16T06:29:57.981Z,4.94
2023-04-16T06:35:07.068Z,4.94
2023-04-16T06:40:15.622Z,4.95
2023-04-16T07:31:48.966Z,5.06
2023-04-16T07:36:57.175Z,5.06
2023-04-16T07:42:05.667Z,4.91
2023-04-16T07:47:14.792Z,4.91
2023-04-16T07:52:23.268Z,4.96
2023-04-16T07:57:31.711Z,4.96
2023-04-16T08:02:40.976Z,5
2023-04-16T08:07:48.691Z,5
2023-04-16T08:12:57.193Z,4.92
2023-04-16T08:18:06.145Z,4.98
2023-04-16T08:23:14.130Z,4.98
2023-04-16T08:28:23.903Z,4.96
2023-04-16T08:33:33.656Z,4.96
2023-04-16T08:38:45.939Z,4.93
2023-04-16T08:43:56.402Z,4.93
2023-04-16T08:49:06.204Z,4.96
2023-04-16T08:54:14.618Z,4.96
2023-04-16T08:59:23.732Z,5.03
2023-04-16T09:04:32.698Z,5.03
2023-04-16T09:09:41.977Z,4.97
2023-04-16T09:14:50.451Z,4.97
2023-04-16T09:19:59.570Z,5.05
2023-04-16T09:25:08.785Z,5.05
2023-04-16T09:30:17.178Z,4.95
2023-04-16T09:35:26.964Z,4.95
2023-04-16T09:40:36.697Z,5.05
2023-04-16T09:45:46.052Z,5.05
2023-04-16T09:50:54.420Z,4.97
2023-04-16T09:56:03.424Z,4.97
2023-04-16T10:01:12.239Z,5.02
2023-04-16T10:06:20.402Z,5.02
2023-04-16T10:11:29.496Z,5.08
2023-04-16T10:16:38.861Z,5.08
2023-04-16T11:08:09.257Z,5.08
2023-04-16T11:13:18.928Z,5.01
2023-04-16T11:18:28.682Z,5.01
2023-04-16T11:23:39.118Z,5.02
2023-04-16T11:28:48.197Z,4.99
2023-04-16T11:33:57.351Z,4.99
2023-04-16T11:39:06.433Z,4.97
2023-04-16T11:44:14.929Z,4.97
2023-04-16T11:49:23.416Z,4.98
2023-04-16T11:54:32.542Z,4.98
2023-04-16T12:00:06.353Z,4.93
2023-04-16T12:04:51.248Z,4.93
2023-04-16T12:09:59.930Z,4.82
2023-04-16T12:15:09.015Z,4.82
2023-04-16T12:20:17.471Z,4.79
2023-04-16T12:37:49.768Z,4.86
2023-04-16T12:42:58.115Z,4.83
2023-04-16T12:48:06.612Z,4.83
2023-04-16T12:53:15.128Z,4.89
2023-04-16T12:58:23.567Z,4.89
2023-04-16T13:03:34.082Z,4.9
2023-04-16T13:08:43.109Z,4.9
2023-04-16T13:13:52.842Z,4.91
2023-04-16T13:19:02.050Z,4.88
2023-04-16T13:24:11.117Z,4.88
2023-04-16T13:29:20.885Z,4.86
2023-04-16T13:34:30.009Z,4.86
2023-04-16T13:39:38.470Z,4.92
2023-04-16T13:44:46.922Z,4.92
2023-04-16T13:49:56.048Z,4.89
2023-04-16T13:55:04.535Z,4.89
2023-04-16T14:00:13.712Z,4.95
2023-04-16T14:05:27.461Z,4.95
2023-04-16T14:10:31.905Z,4.9
2023-04-16T14:15:41.662Z,4.9
2023-04-16T14:20:51.407Z,4.84
2023-04-16T14:26:01.205Z,4.84
2023-04-16T14:31:10.300Z,4.83
2023-04-16T14:36:18.123Z,4.83
2023-04-16T14:41:27.899Z,4.74
2023-04-16T14:46:36.371Z,4.74
2023-04-16T14:51:45.502Z,4.74
2023-04-16T14:56:54.636Z,4.74
2023-04-16T15:02:04.096Z,4.72
2023-04-16T15:07:13.518Z,4.72
2023-04-16T15:12:21.999Z,4.72
2023-04-16T15:17:30.672Z,4.72
2023-04-16T15:22:39.561Z,4.74
2023-04-16T15:27:49.356Z,4.74
2023-04-16T15:32:58.740Z,4.69
2023-04-16T16:19:16.896Z,4.58
2023-04-16T16:24:25.186Z,4.49
2023-04-16T16:29:34.958Z,4.49
2023-04-16T16:34:44.053Z,4.56
2023-04-16T16:39:54.456Z,4.52
2023-04-16T16:45:03.576Z,4.52
2023-04-16T16:50:13.975Z,4.55
2023-04-16T16:55:23.131Z,4.55
2023-04-16T17:00:33.212Z,4.59
2023-04-16T17:05:42.609Z,4.59
2023-04-16T17:10:51.089Z,4.53
2023-04-16T17:16:00.900Z,4.53
2023-04-16T17:21:11.357Z,4.57
2023-04-16T17:26:19.767Z,4.57
2023-04-16T17:31:28.122Z,4.58
2023-04-16T17:36:36.030Z,4.58
2023-04-16T17:41:44.579Z,4.6
2023-04-16T17:46:53.678Z,4.6
2023-04-16T17:52:01.517Z,4.6
2023-04-16T17:57:11.257Z,4.6
2023-04-16T18:02:21.258Z,4.63
2023-04-16T18:07:29.503Z,4.63
2023-04-16T18:12:39.310Z,4.65
2023-04-16T18:17:49.300Z,4.65
2023-04-16T18:22:56.871Z,4.74
2023-04-16T18:28:06.643Z,4.74
2023-04-16T18:33:58.880Z,4.76
2023-04-16T18:38:24.221Z,4.76
2023-04-16T18:43:33.365Z,4.82
2023-04-16T18:48:42.461Z,4.82
2023-04-16T18:53:51.599Z,4.75
2023-04-16T18:59:00.068Z,4.75
2023-04-16T19:04:08.754Z,4.74
2023-04-16T19:09:17.772Z,4.74
2023-04-16T19:55:41.118Z,4.9
2023-04-16T20:00:50.957Z,4.82
2023-04-16T20:05:59.898Z,4.82
2023-04-16T20:11:09.020Z,4.79
2023-04-16T20:16:18.383Z,4.79
2023-04-16T20:21:26.610Z,4.85
2023-04-16T20:26:35.098Z,4.85
2023-04-16T20:31:46.214Z,4.88
2023-04-16T20:36:55.288Z,4.88
2023-04-16T20:42:03.727Z,4.82
2023-04-16T20:47:12.860Z,4.82
2023-04-16T20:52:21.334Z,4.82
2023-04-16T20:57:31.172Z,4.82
2023-04-16T21:02:41.785Z,4.85
2023-04-16T21:07:50.634Z,4.85
2023-04-16T21:13:00.371Z,4.84
2023-04-16T21:18:08.868Z,4.84
2023-04-16T21:23:17.996Z,4.85
2023-04-16T21:28:26.457Z,4.85
2023-04-16T21:33:34.941Z,4.88
2023-04-16T21:38:44.065Z,4.88
2023-04-16T21:43:52.534Z,4.84
2023-04-16T21:49:01.665Z,4.84
2023-04-16T21:54:11.457Z,4.86
2023-04-16T21:59:19.920Z,4.86
2023-04-16T22:04:29.651Z,4.84
2023-04-16T22:09:38.148Z,4.84
2023-04-16T22:15:03.642Z,4.93
2023-04-16T22:19:57.003Z,4.93
2023-04-16T22:25:05.515Z,4.86
2023-04-16T22:30:15.268Z,4.86
2023-04-16T22:35:25.012Z,4.89
2023-04-16T22:40:34.158Z,4.89
2023-04-16T23:32:08.025Z,4.91
2023-04-16T23:37:17.021Z,4.91
2023-04-16T23:42:26.129Z,4.84
2023-04-16T23:47:35.456Z,4.84
2023-04-16T23:52:44.356Z,4.92
2023-04-16T23:57:52.973Z,4.92
